sensor_id;sensor_type;location;lat;lon;timestamp;P1;durP1;ratioP1;P2;durP2;ratioP2
70026;SDS011;57506;50.092;15.804;2022-12-05T00:01:19;15.63;;;8.77;;
70026;SDS011;57506;50.092;15.804;2022-12-05T00:03:49;17.38;;;9.55;;
70026;SDS011;57506;50.092;15.804;2022-12-05T00:06:16;15.98;;;8.82;;
70026;SDS011;57506;50.092;15.804;2022-12-05T00:08:43;16.98;;;9.18;;
70026;SDS011;57506;50.092;15.804;2022-12-05T00:11:18;16.80;;;8.70;;
70026;SDS011;57506;50.092;15.804;2022-12-05T00:13:46;16.43;;;9.43;;
70026;SDS011;57506;50.092;15.804;2022-12-05T00:16:14;18.83;;;10.15;;
70026;SDS011;57506;50.092;15.804;2022-12-05T00:18:42;18.45;;;9.50;;
70026;SDS011;57506;50.092;15.804;2022-12-05T00:21:12;16.50;;;8.75;;
70026;SDS011;57506;50.092;15.804;2022-12-05T00:23:41;17.20;;;10.15;;
70026;SDS011;57506;50.092;15.804;2022-12-05T00:26:07;18.67;;;9.77;;
70026;SDS011;57506;50.092;15.804;2022-12-05T00:28:33;18.02;;;9.48;;
70026;SDS011;57506;50.092;15.804;2022-12-05T00:31:09;16.52;;;9.23;;
70026;SDS011;57506;50.092;15.804;2022-12-05T00:33:38;17.43;;;9.23;;
70026;SDS011;57506;50.092;15.804;2022-12-05T00:36:11;16.80;;;9.43;;
70026;SDS011;57506;50.092;15.804;2022-12-05T00:38:38;19.35;;;9.95;;
70026;SDS011;57506;50.092;15.804;2022-12-05T00:41:09;17.80;;;9.90;;
70026;SDS011;57506;50.092;15.804;2022-12-05T00:43:37;16.17;;;9.37;;
70026;SDS011;57506;50.092;15.804;2022-12-05T00:46:04;15.10;;;8.50;;
70026;SDS011;57506;50.092;15.804;2022-12-05T00:48:31;16.48;;;9.52;;
70026;SDS011;57506;50.092;15.804;2022-12-05T00:51:04;16.27;;;9.43;;
70026;SDS011;57506;50.092;15.804;2022-12-05T00:53:41;16.00;;;9.57;;
70026;SDS011;57506;50.092;15.804;2022-12-05T00:56:08;15.00;;;8.68;;
70026;SDS011;57506;50.092;15.804;2022-12-05T00:58:35;17.80;;;9.35;;
70026;SDS011;57506;50.092;15.804;2022-12-05T01:01:34;17.00;;;9.85;;
70026;SDS011;57506;50.092;15.804;2022-12-05T01:03:56;18.87;;;9.90;;
70026;SDS011;57506;50.092;15.804;2022-12-05T01:06:24;16.85;;;9.68;;
70026;SDS011;57506;50.092;15.804;2022-12-05T01:08:51;18.40;;;9.75;;
70026;SDS011;57506;50.092;15.804;2022-12-05T01:11:18;17.02;;;9.82;;
70026;SDS011;57506;50.092;15.804;2022-12-05T01:13:44;16.97;;;9.60;;
70026;SDS011;57506;50.092;15.804;2022-12-05T01:16:18;16.70;;;9.35;;
70026;SDS011;57506;50.092;15.804;2022-12-05T01:18:55;17.33;;;9.77;;
70026;SDS011;57506;50.092;15.804;2022-12-05T01:21:22;17.65;;;9.75;;
70026;SDS011;57506;50.092;15.804;2022-12-05T01:23:48;15.90;;;9.60;;
70026;SDS011;57506;50.092;15.804;2022-12-05T01:26:14;16.90;;;9.38;;
70026;SDS011;57506;50.092;15.804;2022-12-05T01:28:41;16.35;;;9.70;;
70026;SDS011;57506;50.092;15.804;2022-12-05T01:31:09;17.92;;;9.98;;
70026;SDS011;57506;50.092;15.804;2022-12-05T01:33:40;18.67;;;11.02;;
70026;SDS011;57506;50.092;15.804;2022-12-05T01:36:08;20.20;;;10.10;;
70026;SDS011;57506;50.092;15.804;2022-12-05T01:38:35;16.85;;;9.60;;
70026;SDS011;57506;50.092;15.804;2022-12-05T01:41:02;18.67;;;10.30;;
70026;SDS011;57506;50.092;15.804;2022-12-05T01:43:29;17.48;;;10.00;;
70026;SDS011;57506;50.092;15.804;2022-12-05T01:45:55;20.27;;;10.88;;
70026;SDS011;57506;50.092;15.804;2022-12-05T01:48:32;18.37;;;10.13;;
70026;SDS011;57506;50.092;15.804;2022-12-05T01:51:00;20.15;;;10.98;;
70026;SDS011;57506;50.092;15.804;2022-12-05T01:53:27;22.85;;;11.65;;
70026;SDS011;57506;50.092;15.804;2022-12-05T01:55:53;21.08;;;11.75;;
70026;SDS011;57506;50.092;15.804;2022-12-05T01:58:19;20.77;;;11.93;;
70026;SDS011;57506;50.092;15.804;2022-12-05T02:00:46;22.67;;;12.27;;
70026;SDS011;57506;50.092;15.804;2022-12-05T02:03:16;21.38;;;11.93;;
70026;SDS011;57506;50.092;15.804;2022-12-05T02:05:49;21.25;;;12.40;;
70026;SDS011;57506;50.092;15.804;2022-12-05T02:08:17;20.85;;;11.45;;
70026;SDS011;57506;50.092;15.804;2022-12-05T02:10:48;22.70;;;12.57;;
70026;SDS011;57506;50.092;15.804;2022-12-05T02:16:03;21.63;;;11.88;;
70026;SDS011;57506;50.092;15.804;2022-12-05T02:24:26;20.67;;;11.20;;
70026;SDS011;57506;50.092;15.804;2022-12-05T02:27:05;22.23;;;12.57;;
70026;SDS011;57506;50.092;15.804;2022-12-05T02:32:25;20.58;;;12.05;;
70026;SDS011;57506;50.092;15.804;2022-12-05T02:40:36;21.17;;;11.60;;
70026;SDS011;57506;50.092;15.804;2022-12-05T02:43:11;23.20;;;12.10;;
70026;SDS011;57506;50.092;15.804;2022-12-05T02:45:42;23.65;;;12.25;;
70026;SDS011;57506;50.092;15.804;2022-12-05T02:48:10;21.33;;;12.68;;
70026;SDS011;57506;50.092;15.804;2022-12-05T02:50:40;23.33;;;12.32;;
70026;SDS011;57506;50.092;15.804;2022-12-05T02:53:08;21.33;;;11.70;;
70026;SDS011;57506;50.092;15.804;2022-12-05T02:55:37;20.70;;;11.85;;
70026;SDS011;57506;50.092;15.804;2022-12-05T02:58:06;21.40;;;12.13;;
70026;SDS011;57506;50.092;15.804;2022-12-05T03:00:37;23.70;;;12.55;;
70026;SDS011;57506;50.092;15.804;2022-12-05T03:03:14;24.13;;;12.07;;
70026;SDS011;57506;50.092;15.804;2022-12-05T03:08:41;24.05;;;13.32;;
70026;SDS011;57506;50.092;15.804;2022-12-05T03:11:12;24.30;;;12.70;;
70026;SDS011;57506;50.092;15.804;2022-12-05T03:13:39;25.80;;;13.07;;
70026;SDS011;57506;50.092;15.804;2022-12-05T03:16:14;25.05;;;13.77;;
70026;SDS011;57506;50.092;15.804;2022-12-05T03:18:46;23.92;;;12.80;;
70026;SDS011;57506;50.092;15.804;2022-12-05T03:21:26;23.52;;;12.68;;
70026;SDS011;57506;50.092;15.804;2022-12-05T03:24:02;23.30;;;12.53;;
70026;SDS011;57506;50.092;15.804;2022-12-05T03:29:41;21.83;;;11.95;;
70026;SDS011;57506;50.092;15.804;2022-12-05T03:32:23;20.35;;;11.75;;
70026;SDS011;57506;50.092;15.804;2022-12-05T03:35:13;21.52;;;11.85;;
70026;SDS011;57506;50.092;15.804;2022-12-05T03:45:49;21.73;;;11.77;;
70026;SDS011;57506;50.092;15.804;2022-12-05T03:50:51;21.10;;;11.77;;
70026;SDS011;57506;50.092;15.804;2022-12-05T03:53:26;23.27;;;12.95;;
70026;SDS011;57506;50.092;15.804;2022-12-05T03:55:58;23.83;;;13.10;;
70026;SDS011;57506;50.092;15.804;2022-12-05T03:58:30;23.60;;;12.48;;
70026;SDS011;57506;50.092;15.804;2022-12-05T04:01:03;22.50;;;12.90;;
70026;SDS011;57506;50.092;15.804;2022-12-05T04:03:32;24.20;;;13.10;;
70026;SDS011;57506;50.092;15.804;2022-12-05T04:06:27;23.75;;;12.57;;
70026;SDS011;57506;50.092;15.804;2022-12-05T04:08:58;24.95;;;13.45;;
70026;SDS011;57506;50.092;15.804;2022-12-05T04:11:30;22.60;;;12.40;;
70026;SDS011;57506;50.092;15.804;2022-12-05T04:14:07;24.90;;;13.60;;
70026;SDS011;57506;50.092;15.804;2022-12-05T04:22:19;25.50;;;12.38;;
70026;SDS011;57506;50.092;15.804;2022-12-05T04:24:46;23.73;;;12.63;;
70026;SDS011;57506;50.092;15.804;2022-12-05T04:27:37;22.73;;;11.30;;
70026;SDS011;57506;50.092;15.804;2022-12-05T04:30:33;22.10;;;12.00;;
70026;SDS011;57506;50.092;15.804;2022-12-05T04:38:30;21.05;;;10.65;;
70026;SDS011;57506;50.092;15.804;2022-12-05T04:41:05;19.17;;;10.38;;
70026;SDS011;57506;50.092;15.804;2022-12-05T04:43:37;17.00;;;9.60;;
70026;SDS011;57506;50.092;15.804;2022-12-05T04:46:07;20.38;;;10.73;;
70026;SDS011;57506;50.092;15.804;2022-12-05T04:48:36;20.65;;;10.07;;
70026;SDS011;57506;50.092;15.804;2022-12-05T04:51:05;18.38;;;8.38;;
70026;SDS011;57506;50.092;15.804;2022-12-05T04:53:33;15.70;;;8.23;;
70026;SDS011;57506;50.092;15.804;2022-12-05T04:56:00;16.77;;;7.90;;
70026;SDS011;57506;50.092;15.804;2022-12-05T04:58:28;15.40;;;7.43;;
70026;SDS011;57506;50.092;15.804;2022-12-05T05:03:33;11.52;;;6.50;;
70026;SDS011;57506;50.092;15.804;2022-12-05T05:06:04;13.90;;;6.50;;
70026;SDS011;57506;50.092;15.804;2022-12-05T05:08:31;12.80;;;6.43;;
70026;SDS011;57506;50.092;15.804;2022-12-05T05:11:11;12.60;;;6.72;;
70026;SDS011;57506;50.092;15.804;2022-12-05T05:13:57;13.23;;;6.93;;
70026;SDS011;57506;50.092;15.804;2022-12-05T05:16:27;12.53;;;6.40;;
70026;SDS011;57506;50.092;15.804;2022-12-05T05:18:58;13.95;;;7.25;;
70026;SDS011;57506;50.092;15.804;2022-12-05T05:23:49;13.10;;;7.53;;
70026;SDS011;57506;50.092;15.804;2022-12-05T05:26:15;12.45;;;7.50;;
70026;SDS011;57506;50.092;15.804;2022-12-05T05:28:42;14.95;;;7.68;;
70026;SDS011;57506;50.092;15.804;2022-12-05T05:31:08;15.27;;;7.87;;
70026;SDS011;57506;50.092;15.804;2022-12-05T05:33:34;17.55;;;7.82;;
70026;SDS011;57506;50.092;15.804;2022-12-05T05:36:01;15.85;;;8.45;;
70026;SDS011;57506;50.092;15.804;2022-12-05T05:38:56;15.07;;;8.23;;
70026;SDS011;57506;50.092;15.804;2022-12-05T05:41:52;16.67;;;7.82;;
70026;SDS011;57506;50.092;15.804;2022-12-05T05:44:19;13.32;;;7.82;;
70026;SDS011;57506;50.092;15.804;2022-12-05T05:46:54;16.90;;;8.00;;
70026;SDS011;57506;50.092;15.804;2022-12-05T05:49:22;16.05;;;8.23;;
70026;SDS011;57506;50.092;15.804;2022-12-05T05:51:48;15.10;;;7.67;;
70026;SDS011;57506;50.092;15.804;2022-12-05T05:54:14;15.65;;;7.97;;
70026;SDS011;57506;50.092;15.804;2022-12-05T05:56:39;15.70;;;7.60;;
70026;SDS011;57506;50.092;15.804;2022-12-05T05:59:05;15.13;;;7.43;;
70026;SDS011;57506;50.092;15.804;2022-12-05T06:01:31;14.53;;;7.50;;
70026;SDS011;57506;50.092;15.804;2022-12-05T06:03:56;13.13;;;7.13;;
70026;SDS011;57506;50.092;15.804;2022-12-05T06:06:22;15.87;;;8.00;;
70026;SDS011;57506;50.092;15.804;2022-12-05T06:08:48;17.23;;;8.10;;
70026;SDS011;57506;50.092;15.804;2022-12-05T06:11:15;14.93;;;7.40;;
70026;SDS011;57506;50.092;15.804;2022-12-05T06:13:43;14.95;;;7.85;;
70026;SDS011;57506;50.092;15.804;2022-12-05T06:16:09;13.30;;;6.88;;
70026;SDS011;57506;50.092;15.804;2022-12-05T06:18:36;16.13;;;7.63;;
70026;SDS011;57506;50.092;15.804;2022-12-05T06:21:02;14.43;;;7.50;;
70026;SDS011;57506;50.092;15.804;2022-12-05T06:23:32;14.75;;;6.82;;
70026;SDS011;57506;50.092;15.804;2022-12-05T06:25:58;14.57;;;7.40;;
70026;SDS011;57506;50.092;15.804;2022-12-05T06:28:24;14.60;;;7.93;;
70026;SDS011;57506;50.092;15.804;2022-12-05T06:30:50;15.20;;;7.43;;
70026;SDS011;57506;50.092;15.804;2022-12-05T06:33:15;16.23;;;7.53;;
70026;SDS011;57506;50.092;15.804;2022-12-05T06:35:41;13.60;;;7.05;;
70026;SDS011;57506;50.092;15.804;2022-12-05T06:38:07;14.40;;;7.60;;
70026;SDS011;57506;50.092;15.804;2022-12-05T06:40:33;15.35;;;7.90;;
70026;SDS011;57506;50.092;15.804;2022-12-05T06:42:59;14.55;;;7.13;;
70026;SDS011;57506;50.092;15.804;2022-12-05T06:45:25;15.97;;;8.00;;
70026;SDS011;57506;50.092;15.804;2022-12-05T06:47:51;15.00;;;7.63;;
70026;SDS011;57506;50.092;15.804;2022-12-05T06:50:17;14.30;;;7.90;;
70026;SDS011;57506;50.092;15.804;2022-12-05T06:52:43;14.60;;;8.02;;
70026;SDS011;57506;50.092;15.804;2022-12-05T06:55:09;15.40;;;8.10;;
70026;SDS011;57506;50.092;15.804;2022-12-05T06:57:35;14.45;;;8.13;;
70026;SDS011;57506;50.092;15.804;2022-12-05T07:00:00;15.83;;;8.20;;
70026;SDS011;57506;50.092;15.804;2022-12-05T07:02:45;15.23;;;7.63;;
70026;SDS011;57506;50.092;15.804;2022-12-05T07:05:11;17.13;;;8.55;;
70026;SDS011;57506;50.092;15.804;2022-12-05T07:07:36;14.77;;;7.73;;
70026;SDS011;57506;50.092;15.804;2022-12-05T07:10:02;15.83;;;7.77;;
70026;SDS011;57506;50.092;15.804;2022-12-05T07:12:31;14.95;;;7.88;;
70026;SDS011;57506;50.092;15.804;2022-12-05T07:14:57;15.90;;;8.00;;
70026;SDS011;57506;50.092;15.804;2022-12-05T07:17:23;14.85;;;8.43;;
70026;SDS011;57506;50.092;15.804;2022-12-05T07:19:49;15.13;;;8.60;;
70026;SDS011;57506;50.092;15.804;2022-12-05T07:22:16;15.15;;;8.60;;
70026;SDS011;57506;50.092;15.804;2022-12-05T07:24:43;14.10;;;8.13;;
70026;SDS011;57506;50.092;15.804;2022-12-05T07:27:09;14.63;;;8.43;;
70026;SDS011;57506;50.092;15.804;2022-12-05T07:29:35;14.47;;;8.17;;
70026;SDS011;57506;50.092;15.804;2022-12-05T07:32:01;16.45;;;8.07;;
70026;SDS011;57506;50.092;15.804;2022-12-05T07:34:26;13.20;;;7.40;;
70026;SDS011;57506;50.092;15.804;2022-12-05T07:36:52;18.48;;;9.18;;
70026;SDS011;57506;50.092;15.804;2022-12-05T07:39:17;19.60;;;9.47;;
70026;SDS011;57506;50.092;15.804;2022-12-05T07:41:43;22.63;;;9.87;;
70026;SDS011;57506;50.092;15.804;2022-12-05T07:44:09;23.65;;;10.65;;
70026;SDS011;57506;50.092;15.804;2022-12-05T07:46:36;28.03;;;11.93;;
70026;SDS011;57506;50.092;15.804;2022-12-05T07:49:02;35.70;;;13.20;;
70026;SDS011;57506;50.092;15.804;2022-12-05T07:51:27;33.30;;;13.15;;
70026;SDS011;57506;50.092;15.804;2022-12-05T07:53:53;20.17;;;9.60;;
70026;SDS011;57506;50.092;15.804;2022-12-05T07:56:19;16.65;;;8.32;;
70026;SDS011;57506;50.092;15.804;2022-12-05T07:58:46;20.47;;;9.20;;
70026;SDS011;57506;50.092;15.804;2022-12-05T08:01:14;24.52;;;10.70;;
70026;SDS011;57506;50.092;15.804;2022-12-05T08:03:42;23.52;;;9.77;;
70026;SDS011;57506;50.092;15.804;2022-12-05T08:06:09;26.00;;;11.18;;
70026;SDS011;57506;50.092;15.804;2022-12-05T08:08:37;29.67;;;11.23;;
70026;SDS011;57506;50.092;15.804;2022-12-05T08:11:04;22.40;;;10.23;;
70026;SDS011;57506;50.092;15.804;2022-12-05T08:13:34;25.67;;;10.82;;
70026;SDS011;57506;50.092;15.804;2022-12-05T08:16:04;24.70;;;12.18;;
70026;SDS011;57506;50.092;15.804;2022-12-05T08:18:41;23.20;;;11.65;;
70026;SDS011;57506;50.092;15.804;2022-12-05T08:21:09;26.80;;;11.00;;
70026;SDS011;57506;50.092;15.804;2022-12-05T08:23:36;22.42;;;10.43;;
70026;SDS011;57506;50.092;15.804;2022-12-05T08:26:07;29.92;;;13.00;;
70026;SDS011;57506;50.092;15.804;2022-12-05T08:28:34;25.85;;;11.40;;
70026;SDS011;57506;50.092;15.804;2022-12-05T08:33:39;16.57;;;8.80;;
70026;SDS011;57506;50.092;15.804;2022-12-05T08:36:06;21.20;;;9.32;;
70026;SDS011;57506;50.092;15.804;2022-12-05T08:38:33;19.92;;;10.25;;
70026;SDS011;57506;50.092;15.804;2022-12-05T08:41:00;20.75;;;9.85;;
70026;SDS011;57506;50.092;15.804;2022-12-05T08:43:27;21.57;;;10.10;;
70026;SDS011;57506;50.092;15.804;2022-12-05T08:45:54;18.83;;;9.20;;
70026;SDS011;57506;50.092;15.804;2022-12-05T08:48:21;19.52;;;9.82;;
70026;SDS011;57506;50.092;15.804;2022-12-05T08:50:48;16.30;;;9.02;;
70026;SDS011;57506;50.092;15.804;2022-12-05T08:53:14;17.23;;;9.30;;
70026;SDS011;57506;50.092;15.804;2022-12-05T08:55:40;17.05;;;8.88;;
70026;SDS011;57506;50.092;15.804;2022-12-05T08:58:06;16.77;;;9.30;;
70026;SDS011;57506;50.092;15.804;2022-12-05T09:00:31;19.13;;;9.15;;
70026;SDS011;57506;50.092;15.804;2022-12-05T09:02:57;17.40;;;9.07;;
70026;SDS011;57506;50.092;15.804;2022-12-05T09:05:23;14.88;;;7.95;;
70026;SDS011;57506;50.092;15.804;2022-12-05T09:07:49;18.17;;;9.10;;
70026;SDS011;57506;50.092;15.804;2022-12-05T09:10:15;16.23;;;8.23;;
70026;SDS011;57506;50.092;15.804;2022-12-05T09:12:41;15.68;;;8.45;;
70026;SDS011;57506;50.092;15.804;2022-12-05T09:15:07;14.60;;;8.17;;
70026;SDS011;57506;50.092;15.804;2022-12-05T09:17:34;16.25;;;8.30;;
70026;SDS011;57506;50.092;15.804;2022-12-05T09:20:00;16.33;;;8.57;;
70026;SDS011;57506;50.092;15.804;2022-12-05T09:22:26;21.23;;;9.17;;
70026;SDS011;57506;50.092;15.804;2022-12-05T09:24:51;17.67;;;8.65;;
70026;SDS011;57506;50.092;15.804;2022-12-05T09:27:16;17.57;;;8.83;;
70026;SDS011;57506;50.092;15.804;2022-12-05T09:29:42;20.70;;;10.23;;
70026;SDS011;57506;50.092;15.804;2022-12-05T09:32:08;16.00;;;8.52;;
70026;SDS011;57506;50.092;15.804;2022-12-05T09:34:35;19.38;;;9.27;;
70026;SDS011;57506;50.092;15.804;2022-12-05T09:37:02;19.90;;;9.80;;
70026;SDS011;57506;50.092;15.804;2022-12-05T09:39:32;17.83;;;8.93;;
70026;SDS011;57506;50.092;15.804;2022-12-05T09:55:42;15.90;;;7.63;;
70026;SDS011;57506;50.092;15.804;2022-12-05T10:09:17;17.30;;;8.73;;
70026;SDS011;57506;50.092;15.804;2022-12-05T10:12:17;16.27;;;8.47;;
70026;SDS011;57506;50.092;15.804;2022-12-05T10:14:59;14.65;;;8.23;;
70026;SDS011;57506;50.092;15.804;2022-12-05T10:18:00;14.20;;;8.00;;
70026;SDS011;57506;50.092;15.804;2022-12-05T10:21:16;17.05;;;8.70;;
70026;SDS011;57506;50.092;15.804;2022-12-05T10:24:21;16.10;;;8.40;;
70026;SDS011;57506;50.092;15.804;2022-12-05T10:26:33;15.17;;;8.53;;
70026;SDS011;57506;50.092;15.804;2022-12-05T10:29:06;15.48;;;7.63;;
70026;SDS011;57506;50.092;15.804;2022-12-05T10:31:35;15.15;;;8.35;;
70026;SDS011;57506;50.092;15.804;2022-12-05T10:34:08;15.43;;;7.47;;
70026;SDS011;57506;50.092;15.804;2022-12-05T10:36:35;15.02;;;8.05;;
70026;SDS011;57506;50.092;15.804;2022-12-05T10:39:00;20.37;;;8.10;;
70026;SDS011;57506;50.092;15.804;2022-12-05T10:41:26;15.40;;;7.40;;
70026;SDS011;57506;50.092;15.804;2022-12-05T10:43:53;16.85;;;8.25;;
70026;SDS011;57506;50.092;15.804;2022-12-05T10:46:20;17.48;;;9.15;;
70026;SDS011;57506;50.092;15.804;2022-12-05T10:48:46;17.08;;;8.68;;
70026;SDS011;57506;50.092;15.804;2022-12-05T10:51:15;18.90;;;8.93;;
70026;SDS011;57506;50.092;15.804;2022-12-05T10:53:45;16.77;;;8.30;;
70026;SDS011;57506;50.092;15.804;2022-12-05T10:59:00;15.50;;;7.97;;
70026;SDS011;57506;50.092;15.804;2022-12-05T11:01:26;16.87;;;8.57;;
70026;SDS011;57506;50.092;15.804;2022-12-05T11:03:56;18.20;;;8.90;;
70026;SDS011;57506;50.092;15.804;2022-12-05T11:06:30;17.73;;;9.27;;
70026;SDS011;57506;50.092;15.804;2022-12-05T11:08:58;20.67;;;9.77;;
70026;SDS011;57506;50.092;15.804;2022-12-05T11:11:29;18.65;;;9.07;;
70026;SDS011;57506;50.092;15.804;2022-12-05T11:14:04;20.17;;;9.63;;
70026;SDS011;57506;50.092;15.804;2022-12-05T11:21:46;16.80;;;9.40;;
70026;SDS011;57506;50.092;15.804;2022-12-05T11:26:54;17.58;;;9.27;;
70026;SDS011;57506;50.092;15.804;2022-12-05T11:29:37;16.08;;;8.88;;
70026;SDS011;57506;50.092;15.804;2022-12-05T11:32:05;17.60;;;8.27;;
70026;SDS011;57506;50.092;15.804;2022-12-05T11:34:44;17.87;;;9.33;;
70026;SDS011;57506;50.092;15.804;2022-12-05T11:37:16;16.52;;;8.82;;
70026;SDS011;57506;50.092;15.804;2022-12-05T11:39:48;17.88;;;8.70;;
70026;SDS011;57506;50.092;15.804;2022-12-05T12:04:49;15.48;;;7.80;;
70026;SDS011;57506;50.092;15.804;2022-12-05T12:16:26;17.60;;;8.40;;
70026;SDS011;57506;50.092;15.804;2022-12-05T12:27:37;16.90;;;8.97;;
70026;SDS011;57506;50.092;15.804;2022-12-05T12:35:27;18.50;;;8.93;;
70026;SDS011;57506;50.092;15.804;2022-12-05T12:51:04;16.70;;;8.23;;
70026;SDS011;57506;50.092;15.804;2022-12-05T12:54:00;15.23;;;8.00;;
70026;SDS011;57506;50.092;15.804;2022-12-05T13:02:21;19.83;;;10.70;;
70026;SDS011;57506;50.092;15.804;2022-12-05T13:05:18;18.17;;;9.43;;
70026;SDS011;57506;50.092;15.804;2022-12-05T13:07:56;17.77;;;8.97;;
70026;SDS011;57506;50.092;15.804;2022-12-05T13:10:34;21.42;;;9.75;;
70026;SDS011;57506;50.092;15.804;2022-12-05T13:13:05;19.48;;;9.48;;
70026;SDS011;57506;50.092;15.804;2022-12-05T13:15:37;22.23;;;11.57;;
70026;SDS011;57506;50.092;15.804;2022-12-05T13:18:06;21.83;;;10.70;;
70026;SDS011;57506;50.092;15.804;2022-12-05T13:20:40;24.37;;;11.10;;
70026;SDS011;57506;50.092;15.804;2022-12-05T13:23:06;22.67;;;11.40;;
70026;SDS011;57506;50.092;15.804;2022-12-05T13:25:36;22.42;;;11.30;;
70026;SDS011;57506;50.092;15.804;2022-12-05T13:28:04;25.25;;;10.45;;
70026;SDS011;57506;50.092;15.804;2022-12-05T13:30:46;23.90;;;11.07;;
70026;SDS011;57506;50.092;15.804;2022-12-05T13:33:21;19.13;;;10.57;;
70026;SDS011;57506;50.092;15.804;2022-12-05T13:35:54;24.40;;;11.05;;
70026;SDS011;57506;50.092;15.804;2022-12-05T13:38:40;22.20;;;10.15;;
70026;SDS011;57506;50.092;15.804;2022-12-05T13:41:41;19.98;;;9.95;;
70026;SDS011;57506;50.092;15.804;2022-12-05T13:44:31;21.88;;;10.02;;
70026;SDS011;57506;50.092;15.804;2022-12-05T13:47:00;21.83;;;9.63;;
70026;SDS011;57506;50.092;15.804;2022-12-05T13:52:06;19.60;;;10.30;;
70026;SDS011;57506;50.092;15.804;2022-12-05T13:54:41;19.10;;;10.23;;
70026;SDS011;57506;50.092;15.804;2022-12-05T13:57:43;19.85;;;9.68;;
70026;SDS011;57506;50.092;15.804;2022-12-05T14:15:31;20.88;;;10.35;;
70026;SDS011;57506;50.092;15.804;2022-12-05T14:18:10;21.17;;;10.23;;
70026;SDS011;57506;50.092;15.804;2022-12-05T14:20:57;24.67;;;10.25;;
70026;SDS011;57506;50.092;15.804;2022-12-05T14:29:37;28.83;;;13.48;;
70026;SDS011;57506;50.092;15.804;2022-12-05T14:37:35;35.53;;;16.00;;
70026;SDS011;57506;50.092;15.804;2022-12-05T14:43:07;34.58;;;14.48;;
70026;SDS011;57506;50.092;15.804;2022-12-05T14:50:45;31.65;;;14.55;;
70026;SDS011;57506;50.092;15.804;2022-12-05T14:55:48;35.80;;;15.57;;
70026;SDS011;57506;50.092;15.804;2022-12-05T15:01:00;30.80;;;14.63;;
70026;SDS011;57506;50.092;15.804;2022-12-05T15:03:31;30.20;;;13.75;;
70026;SDS011;57506;50.092;15.804;2022-12-05T15:06:00;24.43;;;13.50;;
70026;SDS011;57506;50.092;15.804;2022-12-05T15:08:29;27.52;;;13.27;;
70026;SDS011;57506;50.092;15.804;2022-12-05T15:10:59;28.15;;;13.32;;
70026;SDS011;57506;50.092;15.804;2022-12-05T15:13:25;32.47;;;14.40;;
70026;SDS011;57506;50.092;15.804;2022-12-05T15:16:06;30.95;;;13.50;;
70026;SDS011;57506;50.092;15.804;2022-12-05T15:18:40;28.63;;;13.90;;
70026;SDS011;57506;50.092;15.804;2022-12-05T15:26:37;25.75;;;13.25;;
70026;SDS011;57506;50.092;15.804;2022-12-05T15:37:25;22.48;;;12.15;;
70026;SDS011;57506;50.092;15.804;2022-12-05T15:40:11;23.73;;;11.75;;
70026;SDS011;57506;50.092;15.804;2022-12-05T15:42:48;27.25;;;12.05;;
70026;SDS011;57506;50.092;15.804;2022-12-05T15:45:20;25.03;;;12.47;;
70026;SDS011;57506;50.092;15.804;2022-12-05T15:50:36;26.00;;;13.82;;
70026;SDS011;57506;50.092;15.804;2022-12-05T15:53:13;24.25;;;11.90;;
70026;SDS011;57506;50.092;15.804;2022-12-05T15:55:45;28.50;;;14.93;;
70026;SDS011;57506;50.092;15.804;2022-12-05T16:01:28;41.53;;;20.65;;
70026;SDS011;57506;50.092;15.804;2022-12-05T16:03:58;41.17;;;17.45;;
70026;SDS011;57506;50.092;15.804;2022-12-05T16:09:08;43.38;;;21.42;;
70026;SDS011;57506;50.092;15.804;2022-12-05T16:11:48;38.30;;;20.37;;
70026;SDS011;57506;50.092;15.804;2022-12-05T16:14:24;39.30;;;21.05;;
70026;SDS011;57506;50.092;15.804;2022-12-05T16:16:57;40.40;;;22.20;;
70026;SDS011;57506;50.092;15.804;2022-12-05T16:19:25;34.95;;;19.00;;
70026;SDS011;57506;50.092;15.804;2022-12-05T16:24:44;29.83;;;15.40;;
70026;SDS011;57506;50.092;15.804;2022-12-05T16:27:28;31.58;;;16.05;;
70026;SDS011;57506;50.092;15.804;2022-12-05T16:32:36;26.52;;;14.23;;
70026;SDS011;57506;50.092;15.804;2022-12-05T16:35:02;28.35;;;16.02;;
70026;SDS011;57506;50.092;15.804;2022-12-05T16:37:48;32.30;;;16.73;;
70026;SDS011;57506;50.092;15.804;2022-12-05T16:40:20;29.63;;;15.80;;
70026;SDS011;57506;50.092;15.804;2022-12-05T16:42:46;29.15;;;14.32;;
70026;SDS011;57506;50.092;15.804;2022-12-05T16:45:39;32.70;;;16.57;;
70026;SDS011;57506;50.092;15.804;2022-12-05T16:48:17;35.85;;;18.08;;
70026;SDS011;57506;50.092;15.804;2022-12-05T16:50:44;37.35;;;20.45;;
70026;SDS011;57506;50.092;15.804;2022-12-05T16:55:35;37.80;;;18.57;;
70026;SDS011;57506;50.092;15.804;2022-12-05T16:58:07;45.72;;;20.10;;
70026;SDS011;57506;50.092;15.804;2022-12-05T17:00:36;43.85;;;21.80;;
70026;SDS011;57506;50.092;15.804;2022-12-05T17:03:02;35.33;;;16.83;;
70026;SDS011;57506;50.092;15.804;2022-12-05T17:05:28;32.75;;;16.10;;
70026;SDS011;57506;50.092;15.804;2022-12-05T17:07:54;28.92;;;14.95;;
70026;SDS011;57506;50.092;15.804;2022-12-05T17:10:19;30.63;;;13.50;;
70026;SDS011;57506;50.092;15.804;2022-12-05T17:12:45;28.27;;;13.48;;
70026;SDS011;57506;50.092;15.804;2022-12-05T17:15:18;29.03;;;15.70;;
70026;SDS011;57506;50.092;15.804;2022-12-05T17:17:44;31.20;;;16.25;;
70026;SDS011;57506;50.092;15.804;2022-12-05T17:20:11;28.42;;;14.50;;
70026;SDS011;57506;50.092;15.804;2022-12-05T17:22:38;27.73;;;15.30;;
70026;SDS011;57506;50.092;15.804;2022-12-05T17:25:37;31.88;;;17.60;;
70026;SDS011;57506;50.092;15.804;2022-12-05T17:28:00;29.93;;;17.23;;
70026;SDS011;57506;50.092;15.804;2022-12-05T17:30:26;34.50;;;16.98;;
70026;SDS011;57506;50.092;15.804;2022-12-05T17:32:52;33.60;;;17.63;;
70026;SDS011;57506;50.092;15.804;2022-12-05T17:35:18;32.63;;;16.80;;
70026;SDS011;57506;50.092;15.804;2022-12-05T17:37:46;28.52;;;15.48;;
70026;SDS011;57506;50.092;15.804;2022-12-05T17:40:12;42.83;;;21.27;;
70026;SDS011;57506;50.092;15.804;2022-12-05T17:42:38;36.92;;;19.08;;
70026;SDS011;57506;50.092;15.804;2022-12-05T17:45:05;38.50;;;21.30;;
70026;SDS011;57506;50.092;15.804;2022-12-05T17:47:41;42.20;;;20.90;;
70026;SDS011;57506;50.092;15.804;2022-12-05T17:50:11;38.35;;;21.95;;
70026;SDS011;57506;50.092;15.804;2022-12-05T17:52:38;31.75;;;17.25;;
70026;SDS011;57506;50.092;15.804;2022-12-05T17:55:04;33.17;;;19.77;;
70026;SDS011;57506;50.092;15.804;2022-12-05T17:57:30;31.48;;;18.83;;
70026;SDS011;57506;50.092;15.804;2022-12-05T17:59:57;35.55;;;20.48;;
70026;SDS011;57506;50.092;15.804;2022-12-05T18:02:23;32.80;;;17.10;;
70026;SDS011;57506;50.092;15.804;2022-12-05T18:04:49;33.22;;;16.65;;
70026;SDS011;57506;50.092;15.804;2022-12-05T18:07:14;29.73;;;16.05;;
70026;SDS011;57506;50.092;15.804;2022-12-05T18:09:40;27.50;;;15.33;;
70026;SDS011;57506;50.092;15.804;2022-12-05T18:12:07;27.52;;;16.48;;
70026;SDS011;57506;50.092;15.804;2022-12-05T18:14:33;29.88;;;15.82;;
70026;SDS011;57506;50.092;15.804;2022-12-05T18:17:00;31.53;;;17.93;;
70026;SDS011;57506;50.092;15.804;2022-12-05T18:19:27;30.65;;;16.80;;
70026;SDS011;57506;50.092;15.804;2022-12-05T18:21:53;23.27;;;13.95;;